createdAt,value
2018-09-02T00:00:01.565Z,9.60
2018-09-02T00:01:22.604Z,10.10
2018-09-02T00:02:22.784Z,11.70
2018-09-02T00:03:22.973Z,10.60
2018-09-02T00:04:23.182Z,11.00
2018-09-02T00:05:23.352Z,15.90
2018-09-02T00:06:23.366Z,19.90
2018-09-02T00:07:22.669Z,11.00
2018-09-02T00:08:22.785Z,9.10
2018-09-02T00:09:22.959Z,8.30
2018-09-02T00:10:44.132Z,12.20
2018-09-02T00:11:44.421Z,14.90
2018-09-02T00:13:05.605Z,10.20
2018-09-02T00:14:05.828Z,11.00
2018-09-02T00:15:06.104Z,12.70
2018-09-02T00:16:06.293Z,12.50
2018-09-02T00:17:05.652Z,12.30
2018-09-02T00:18:26.589Z,7.30
2018-09-02T00:19:26.645Z,10.70
2018-09-02T00:20:27.072Z,10.10
2018-09-02T00:21:27.376Z,10.50
2018-09-02T00:22:26.531Z,10.80
2018-09-02T00:23:26.964Z,11.10
2018-09-02T00:24:27.349Z,10.90
2018-09-02T00:25:26.605Z,11.20
2018-09-02T00:26:26.796Z,9.40
2018-09-02T00:27:26.978Z,8.30
2018-09-02T00:28:27.095Z,11.70
2018-09-02T00:29:27.327Z,12.00
2018-09-02T00:30:26.668Z,12.10
2018-09-02T00:31:26.812Z,12.30
2018-09-02T00:32:48.027Z,9.20
2018-09-02T00:33:48.402Z,8.20
2018-09-02T00:35:09.493Z,12.90
2018-09-02T00:36:09.714Z,11.60
2018-09-02T00:37:30.774Z,11.60
2018-09-02T00:38:30.876Z,11.90
2018-09-02T00:39:30.907Z,11.20
2018-09-02T00:40:31.267Z,12.50
2018-09-02T00:41:31.397Z,13.20
2018-09-02T00:42:31.663Z,17.60
2018-09-02T00:43:30.917Z,11.50
2018-09-02T00:44:31.120Z,10.80
2018-09-02T00:45:52.530Z,12.00
2018-09-02T00:47:13.578Z,11.80
2018-09-02T00:48:13.795Z,10.30
2018-09-02T00:49:30.647Z,11.40
2018-09-02T00:50:13.787Z,9.70
2018-09-02T00:51:13.918Z,11.00
2018-09-02T00:52:35.011Z,11.60
2018-09-02T00:53:35.135Z,9.40
2018-09-02T00:54:35.444Z,12.30
2018-09-02T00:55:35.785Z,12.20
2018-09-02T00:56:35.111Z,13.40
2018-09-02T00:57:35.156Z,11.90
2018-09-02T00:59:02.643Z,10.80
2018-09-02T01:00:06.244Z,14.70
2018-09-02T01:00:56.219Z,9.80
2018-09-02T01:01:56.625Z,11.50
2018-09-02T01:03:17.502Z,9.40
2018-09-02T01:04:17.675Z,13.30
2018-09-02T01:05:17.671Z,11.80
2018-09-02T01:06:18.108Z,12.30
2018-09-02T01:07:18.498Z,10.10
2018-09-02T01:08:17.724Z,15.40
2018-09-02T01:09:17.839Z,13.50
2018-09-02T01:10:18.252Z,12.90
2018-09-02T01:11:17.634Z,14.20
2018-09-02T01:12:17.777Z,13.20
2018-09-02T01:13:18.007Z,14.10
2018-09-02T01:14:18.189Z,11.60
2018-09-02T01:15:18.336Z,9.40
2018-09-02T01:16:38.495Z,10.90
2018-09-02T01:17:39.545Z,9.80
2018-09-02T01:18:38.621Z,10.90
2018-09-02T01:19:38.567Z,10.00
2018-09-02T01:20:38.725Z,8.90
2018-09-02T01:21:39.039Z,11.90
2018-09-02T01:22:39.192Z,9.20
2018-09-02T01:23:39.687Z,9.60
2018-09-02T01:24:39.069Z,10.70
2018-09-02T01:25:39.103Z,13.20
2018-09-02T01:26:39.244Z,10.80
2018-09-02T01:27:38.578Z,11.80
2018-09-02T01:28:38.866Z,9.70
2018-09-02T01:29:38.964Z,10.60
2018-09-02T01:30:39.390Z,13.90
2018-09-02T01:31:39.338Z,11.80
2018-09-02T01:32:39.515Z,12.00
2018-09-02T01:33:38.759Z,11.60
2018-09-02T01:34:38.936Z,13.80
2018-09-02T01:35:38.940Z,9.30
2018-09-02T01:36:39.014Z,11.20
2018-09-02T01:37:38.931Z,10.00
2018-09-02T01:38:39.147Z,9.70
2018-09-02T01:39:39.357Z,11.00
2018-09-02T01:40:38.609Z,11.80
2018-09-02T01:41:38.715Z,11.70
2018-09-02T01:42:38.892Z,13.00
2018-09-02T01:44:23.038Z,11.00
2018-09-02T01:45:20.228Z,13.90
2018-09-02T01:46:20.481Z,11.00
2018-09-02T01:47:20.559Z,12.80
2018-09-02T01:48:20.920Z,11.60
2018-09-02T01:49:20.065Z,14.30
2018-09-02T01:50:20.138Z,12.50
2018-09-02T01:51:20.410Z,14.00
2018-09-02T01:52:20.661Z,14.10
2018-09-02T01:53:20.755Z,12.10
2018-09-02T01:54:20.994Z,13.10
2018-09-02T01:55:20.892Z,11.10
2018-09-02T01:56:20.939Z,12.90
2018-09-02T01:57:40.936Z,10.40
2018-09-02T01:58:40.908Z,12.30
2018-09-02T01:59:41.114Z,14.00
2018-09-02T02:00:41.187Z,12.70
2018-09-02T02:01:41.038Z,14.50
2018-09-02T02:02:41.068Z,13.30
2018-09-02T02:03:41.010Z,14.90
2018-09-02T02:04:41.255Z,11.80
2018-09-02T02:05:41.413Z,13.30
2018-09-02T02:07:02.317Z,14.80
2018-09-02T02:08:02.462Z,11.50
2018-09-02T02:09:02.798Z,14.30
2018-09-02T02:10:02.891Z,14.20
2018-09-02T02:11:03.109Z,11.10
2018-09-02T02:12:03.171Z,13.20
2018-09-02T02:13:02.449Z,15.50
2018-09-02T02:14:02.423Z,17.50
2018-09-02T02:15:02.608Z,15.40
2018-09-02T02:16:02.656Z,16.60
2018-09-02T02:17:02.698Z,15.20
2018-09-02T02:18:02.895Z,16.30
2018-09-02T02:19:03.199Z,13.30
2018-09-02T02:20:23.297Z,20.30
2018-09-02T02:21:44.100Z,15.40
2018-09-02T02:22:45.376Z,20.10
2018-09-02T02:23:44.774Z,17.10
2018-09-02T02:25:05.815Z,15.00
2018-09-02T02:26:05.860Z,15.10
2018-09-02T02:27:06.187Z,18.10
2018-09-02T02:28:06.303Z,20.30
2018-09-02T02:29:06.281Z,16.80
2018-09-02T02:30:06.339Z,16.30
2018-09-02T02:31:06.536Z,17.60
2018-09-02T02:32:06.697Z,19.60
2018-09-02T02:33:06.000Z,20.40
2018-09-02T02:34:06.162Z,17.50
2018-09-02T02:35:06.520Z,19.10
2018-09-02T02:36:06.672Z,15.80
2018-09-02T02:37:05.979Z,20.30
2018-09-02T02:38:06.339Z,18.90
2018-09-02T02:39:27.453Z,17.30
2018-09-02T02:40:27.786Z,18.50
2018-09-02T02:41:28.061Z,16.00
2018-09-02T02:42:28.379Z,21.50
2018-09-02T02:44:30.386Z,19.60
2018-09-02T02:45:30.586Z,19.40
2018-09-02T02:46:51.672Z,16.80
2018-09-02T02:48:13.484Z,19.00
2018-09-02T02:49:13.701Z,18.30
2018-09-02T02:50:13.788Z,19.00
2018-09-02T02:51:13.915Z,17.10
2018-09-02T02:52:13.994Z,20.40
2018-09-02T02:53:34.789Z,17.60
2018-09-02T02:54:34.896Z,18.60
2018-09-02T02:55:35.424Z,19.10
2018-09-02T02:56:35.723Z,17.90
2018-09-02T02:57:56.104Z,19.40
2018-09-02T02:59:17.037Z,22.40
2018-09-02T03:00:18.319Z,19.30
2018-09-02T03:01:17.457Z,21.50
2018-09-02T03:02:17.475Z,19.70
2018-09-02T03:03:17.345Z,17.80
2018-09-02T03:04:17.406Z,22.70
2018-09-02T03:05:38.232Z,20.60
2018-09-02T03:06:59.404Z,21.10
2018-09-02T03:08:20.689Z,27.90
2018-09-02T03:09:20.750Z,23.10
2018-09-02T03:10:21.052Z,24.20
2018-09-02T03:11:21.168Z,21.90
2018-09-02T03:12:21.326Z,23.80
2018-09-02T03:13:21.374Z,24.30
2018-09-02T03:14:20.674Z,27.10
2018-09-02T03:15:20.987Z,27.30
2018-09-02T03:16:21.207Z,24.20
2018-09-02T03:17:21.825Z,27.10
2018-09-02T03:18:20.928Z,23.10
2018-09-02T03:19:21.080Z,25.90
2018-09-02T03:20:21.052Z,28.90
2018-09-02T03:21:21.046Z,25.40
2018-09-02T03:22:21.162Z,27.50
2018-09-02T03:23:21.334Z,30.70
2018-09-02T03:24:20.469Z,26.90
2018-09-02T03:25:20.580Z,30.50
2018-09-02T03:26:20.627Z,27.10
2018-09-02T03:27:20.579Z,28.60
2018-09-02T03:28:20.798Z,27.20
2018-09-02T03:29:20.968Z,29.10
2018-09-02T03:30:21.226Z,29.00
2018-09-02T03:31:21.471Z,35.10
2018-09-02T03:32:20.473Z,30.80
2018-09-02T03:33:20.936Z,30.30
2018-09-02T03:34:21.065Z,29.70
2018-09-02T03:35:21.243Z,30.30
2018-09-02T03:36:42.258Z,36.60
2018-09-02T03:37:42.427Z,32.30
2018-09-02T03:38:42.397Z,35.00
2018-09-02T03:39:42.698Z,35.10
2018-09-02T03:40:42.802Z,37.80
2018-09-02T03:41:43.046Z,33.90
2018-09-02T03:42:42.352Z,35.50
2018-09-02T03:43:42.643Z,33.30
2018-09-02T03:44:42.694Z,39.80
2018-09-02T03:45:42.890Z,34.90
2018-09-02T03:46:43.128Z,33.60
2018-09-02T03:47:42.198Z,35.40
2018-09-02T03:48:42.526Z,36.00
2018-09-02T03:49:42.757Z,37.50
2018-09-02T03:50:42.997Z,37.00
2018-09-02T03:51:43.042Z,41.10
2018-09-02T03:52:43.130Z,37.30
2018-09-02T03:53:42.385Z,37.50
2018-09-02T03:54:42.580Z,40.60
2018-09-02T03:55:42.674Z,42.80
2018-09-02T03:56:42.859Z,38.10
2018-09-02T03:57:42.919Z,44.40
2018-09-02T03:59:03.972Z,38.20
2018-09-02T04:00:04.105Z,36.40
2018-09-02T04:01:05.107Z,39.30
2018-09-02T04:02:04.092Z,35.90
2018-09-02T04:03:04.324Z,34.90
2018-09-02T04:04:04.550Z,37.20
2018-09-02T04:05:04.725Z,34.60
2018-09-02T04:06:04.792Z,35.20
2018-09-02T04:07:04.988Z,34.00
2018-09-02T04:08:04.148Z,34.10
2018-09-02T04:09:25.356Z,37.10
2018-09-02T04:10:25.370Z,32.50
2018-09-02T04:11:25.749Z,36.70
2018-09-02T04:12:26.086Z,34.40
2018-09-02T04:13:26.163Z,34.90
2018-09-02T04:14:46.219Z,32.00
2018-09-02T04:15:46.386Z,32.40
2018-09-02T04:16:46.668Z,32.30
2018-09-02T04:17:46.804Z,30.20
2018-09-02T04:18:46.867Z,29.90
2018-09-02T04:19:47.038Z,32.70
2018-09-02T04:20:46.297Z,30.20
2018-09-02T04:21:46.481Z,27.60
2018-09-02T04:22:46.580Z,27.20
2018-09-02T04:23:46.912Z,26.70
2018-09-02T04:25:07.889Z,29.90
2018-09-02T04:26:28.723Z,28.00
2018-09-02T04:27:28.919Z,28.50
2018-09-02T04:28:28.898Z,29.00
2018-09-02T04:29:29.048Z,27.70
2018-09-02T04:30:29.175Z,28.50
2018-09-02T04:31:29.289Z,29.00
2018-09-02T04:32:29.349Z,29.90
2018-09-02T04:33:29.996Z,27.50
2018-09-02T04:34:29.510Z,27.00
2018-09-02T04:35:29.704Z,26.90
2018-09-02T04:36:28.870Z,26.30
2018-09-02T04:37:28.952Z,29.20
2018-09-02T04:38:29.033Z,29.20
2018-09-02T04:39:29.176Z,26.20
2018-09-02T04:40:37.361Z,23.40
2018-09-02T04:41:29.430Z,24.10
2018-09-02T04:42:29.827Z,24.40
2018-09-02T04:43:29.162Z,23.20
2018-09-02T04:44:29.423Z,22.60
2018-09-02T04:45:29.534Z,24.20
2018-09-02T04:46:49.897Z,23.20
2018-09-02T04:47:50.007Z,22.70
2018-09-02T04:48:50.273Z,21.90
2018-09-02T04:49:50.279Z,23.90
2018-09-02T04:50:50.409Z,21.80
2018-09-02T04:51:50.652Z,23.40
2018-09-02T04:52:49.980Z,25.60
2018-09-02T04:53:50.331Z,23.00
2018-09-02T04:54:50.558Z,22.00
2018-09-02T04:55:49.777Z,23.10
2018-09-02T04:56:49.926Z,23.80
2018-09-02T04:57:50.130Z,25.50
2018-09-02T04:58:50.638Z,20.20
2018-09-02T04:59:50.972Z,26.80
2018-09-02T05:00:50.068Z,22.00
2018-09-02T05:01:50.599Z,27.70
2018-09-02T05:02:50.756Z,26.10
2018-09-02T05:03:50.036Z,23.80
2018-09-02T05:04:50.338Z,24.90
2018-09-02T05:05:50.410Z,27.20
2018-09-02T05:06:50.864Z,23.90
2018-09-02T05:07:50.118Z,24.00
2018-09-02T05:08:50.565Z,24.40
2018-09-02T05:09:50.099Z,22.10
2018-09-02T05:10:50.402Z,21.00
2018-09-02T05:11:50.725Z,25.50
2018-09-02T05:12:50.094Z,23.00
2018-09-02T05:13:50.426Z,24.40
2018-09-02T05:15:11.837Z,21.90
2018-09-02T05:16:12.161Z,24.90
2018-09-02T05:17:12.428Z,24.00
2018-09-02T05:18:54.763Z,21.20
2018-09-02T05:19:55.061Z,23.70
2018-09-02T05:21:16.452Z,21.70
2018-09-02T05:22:17.024Z,21.50
2018-09-02T05:23:17.228Z,23.70
2018-09-02T05:24:16.679Z,22.20
2018-09-02T05:25:17.009Z,20.60
2018-09-02T05:26:17.105Z,18.80
2018-09-02T05:27:17.182Z,20.20
2018-09-02T05:28:16.574Z,19.40
2018-09-02T05:29:16.743Z,21.90
2018-09-02T05:30:37.827Z,19.20
2018-09-02T05:31:38.145Z,20.00
2018-09-02T05:32:38.486Z,21.30
2018-09-02T05:33:38.764Z,18.90
2018-09-02T05:34:37.962Z,20.70
2018-09-02T05:35:38.143Z,18.50
2018-09-02T05:36:38.332Z,18.20
2018-09-02T05:37:38.803Z,19.00
2018-09-02T05:38:58.968Z,20.00
2018-09-02T05:39:59.261Z,17.50
2018-09-02T05:40:59.595Z,20.00
2018-09-02T05:42:21.102Z,17.40
2018-09-02T05:43:21.455Z,18.90
2018-09-02T05:45:03.913Z,18.10
2018-09-02T05:46:25.361Z,19.20
2018-09-02T05:47:25.439Z,17.60
2018-09-02T05:48:25.735Z,17.20
2018-09-02T05:49:26.123Z,17.80
2018-09-02T05:50:25.270Z,17.60
2018-09-02T05:51:25.506Z,15.90
2018-09-02T05:52:26.075Z,17.10
2018-09-02T05:53:25.314Z,17.30
2018-09-02T05:54:25.657Z,17.40
2018-09-02T05:55:26.046Z,17.10
2018-09-02T05:56:26.062Z,18.30
2018-09-02T05:57:25.476Z,16.20
2018-09-02T05:58:25.746Z,21.10
2018-09-02T05:59:26.024Z,19.40
2018-09-02T06:00:47.143Z,16.60
2018-09-02T06:01:47.700Z,18.90
2018-09-02T06:02:48.343Z,17.20
2018-09-02T06:03:47.523Z,17.60
2018-09-02T06:05:08.787Z,18.50
2018-09-02T06:06:09.107Z,18.50
2018-09-02T06:07:09.349Z,17.80
2018-09-02T06:08:30.676Z,21.10
2018-09-02T06:09:31.049Z,17.90
2018-09-02T06:10:52.233Z,18.50
2018-09-02T06:11:52.561Z,17.60
2018-09-02T06:13:13.934Z,18.60
2018-09-02T06:14:35.075Z,18.30
2018-09-02T06:15:35.464Z,17.10
2018-09-02T06:16:36.032Z,19.20
2018-09-02T06:17:35.275Z,19.80
2018-09-02T06:18:35.607Z,20.80
2018-09-02T06:19:57.112Z,18.00
2018-09-02T06:21:18.443Z,18.50
2018-09-02T06:22:18.763Z,17.50
2018-09-02T06:23:19.334Z,19.20
2018-09-02T06:24:19.629Z,18.00
2018-09-02T06:25:19.713Z,17.60
2018-09-02T06:26:19.026Z,18.60
2018-09-02T06:27:19.302Z,18.20
2018-09-02T06:28:39.882Z,16.90
2018-09-02T06:29:40.307Z,18.50
2018-09-02T06:30:40.841Z,15.20
2018-09-02T06:31:40.373Z,16.00
2018-09-02T06:32:40.846Z,15.30
2018-09-02T06:33:40.267Z,15.30
2018-09-02T06:34:42.113Z,18.50
2018-09-02T06:35:40.836Z,13.90
2018-09-02T06:36:40.455Z,14.80
2018-09-02T06:37:40.946Z,12.80
2018-09-02T06:38:40.168Z,13.20
2018-09-02T06:39:41.395Z,13.80
2018-09-02T06:41:01.211Z,13.00
2018-09-02T06:42:23.021Z,11.60
2018-09-02T06:43:23.245Z,10.70
2018-09-02T06:44:23.584Z,10.20
2018-09-02T06:45:23.985Z,10.50
2018-09-02T06:46:23.448Z,11.40
2018-09-02T06:47:24.024Z,14.40
2018-09-02T06:48:23.377Z,10.10
2018-09-02T06:49:23.684Z,10.20
2018-09-02T06:50:44.209Z,13.80
2018-09-02T06:51:45.195Z,12.60
2018-09-02T06:52:44.708Z,11.50
2018-09-02T06:53:45.021Z,10.20
2018-09-02T06:54:44.449Z,8.80
2018-09-02T06:55:44.711Z,8.80
2018-09-02T06:56:44.191Z,11.20
2018-09-02T06:57:44.481Z,9.50
2018-09-02T06:58:45.032Z,10.20
2018-09-02T06:59:44.612Z,9.80
2018-09-02T07:00:44.726Z,9.10
2018-09-02T07:01:44.172Z,12.40
2018-09-02T07:02:44.598Z,8.40
2018-09-02T07:03:45.149Z,11.20
2018-09-02T07:04:44.853Z,11.20
2018-09-02T07:05:44.647Z,8.90
2018-09-02T07:06:45.140Z,8.90
2018-09-02T07:07:44.869Z,8.50
2018-09-02T07:08:44.155Z,9.40
2018-09-02T07:09:44.722Z,12.20
2018-09-02T07:10:45.087Z,9.50
2018-09-02T07:11:44.296Z,9.10
2018-09-02T07:12:44.513Z,8.60
2018-09-02T07:13:44.869Z,7.80
2018-09-02T07:14:44.104Z,9.00
2018-09-02T07:15:44.740Z,9.20
2018-09-02T07:16:44.200Z,8.50
2018-09-02T07:17:44.911Z,11.50
2018-09-02T07:18:44.358Z,7.70
2018-09-02T07:19:44.967Z,7.10
2018-09-02T07:20:44.504Z,7.60
2018-09-02T07:21:44.917Z,7.20
2018-09-02T07:22:44.331Z,8.00
2018-09-02T07:23:45.940Z,6.90
2018-09-02T07:24:44.430Z,7.40
2018-09-02T07:25:44.867Z,7.50
2018-09-02T07:27:26.813Z,8.10
2018-09-02T07:28:27.278Z,7.00
2018-09-02T07:29:27.689Z,7.80
2018-09-02T07:30:48.469Z,8.50
2018-09-02T07:33:13.585Z,7.90
2018-09-02T07:34:13.946Z,9.60
2018-09-02T07:35:14.297Z,6.80
2018-09-02T07:36:13.876Z,8.00
2018-09-02T07:37:14.314Z,7.40
2018-09-02T07:38:13.684Z,7.00
2018-09-02T07:39:14.274Z,6.50
2018-09-02T07:40:34.987Z,7.30
2018-09-02T07:41:35.340Z,7.30
2018-09-02T07:43:17.959Z,9.50
2018-09-02T07:44:18.698Z,6.50
2018-09-02T07:45:18.032Z,9.60
2018-09-02T07:46:18.643Z,7.60
2018-09-02T07:47:18.045Z,6.10
2018-09-02T07:48:18.455Z,8.40
2018-09-02T07:49:18.926Z,8.50
2018-09-02T07:50:19.327Z,5.80
2018-09-02T07:51:18.928Z,7.20
2018-09-02T07:52:18.470Z,7.10
2018-09-02T07:53:18.165Z,6.00
2018-09-02T07:54:39.811Z,6.90
2018-09-02T07:55:40.648Z,8.60
2018-09-02T07:56:39.783Z,6.90
2018-09-02T07:57:40.314Z,5.30
2018-09-02T07:58:40.508Z,10.40
2018-09-02T07:59:41.251Z,5.90
2018-09-02T08:00:40.793Z,8.20
2018-09-02T08:01:40.321Z,5.60
2018-09-02T08:02:39.806Z,6.20
2018-09-02T08:03:40.456Z,7.80
2018-09-02T08:04:39.826Z,5.80
2018-09-02T08:05:40.148Z,6.60
2018-09-02T08:06:39.904Z,7.10
2018-09-02T08:07:40.525Z,5.00
2018-09-02T08:08:40.059Z,5.00
2018-09-02T08:09:40.439Z,5.20
2018-09-02T08:10:39.758Z,5.10
2018-09-02T08:11:40.042Z,6.30
2018-09-02T08:13:01.466Z,5.60
2018-09-02T08:14:01.963Z,6.00
2018-09-02T08:15:02.362Z,6.90
2018-09-02T08:16:01.721Z,5.30
2018-09-02T08:17:02.201Z,5.10
2018-09-02T08:18:02.565Z,6.90
2018-09-02T08:19:02.896Z,6.90
2018-09-02T08:20:02.318Z,6.60
2018-09-02T08:21:01.635Z,5.70
2018-09-02T08:22:02.050Z,6.30
2018-09-02T08:23:02.248Z,7.00
2018-09-02T08:24:01.645Z,5.50
2018-09-02T08:25:01.943Z,5.00
2018-09-02T08:26:02.350Z,4.70
2018-09-02T08:27:01.688Z,7.60
2018-09-02T08:28:03.342Z,5.20
2018-09-02T08:29:01.676Z,4.90
2018-09-02T08:30:02.294Z,5.60
2018-09-02T08:31:01.629Z,6.90
2018-09-02T08:32:01.986Z,7.20
2018-09-02T08:33:03.657Z,4.80
2018-09-02T08:34:02.734Z,6.00
2018-09-02T08:35:02.477Z,5.90
2018-09-02T08:36:01.692Z,7.60
2018-09-02T08:37:02.048Z,9.90
2018-09-02T08:38:02.314Z,7.50
2018-09-02T08:39:01.763Z,6.60
2018-09-02T08:40:02.126Z,6.30
2018-09-02T08:41:22.483Z,5.00
2018-09-02T08:42:23.158Z,10.10
2018-09-02T08:43:23.652Z,5.00
2018-09-02T08:44:23.261Z,5.60
2018-09-02T08:45:23.388Z,5.00
2018-09-02T08:46:22.845Z,7.70
2018-09-02T08:47:23.298Z,6.40
2018-09-02T08:48:44.536Z,5.30
2018-09-02T08:49:45.059Z,7.60
2018-09-02T08:50:45.361Z,5.10
2018-09-02T08:51:44.596Z,6.00
2018-09-02T08:53:06.107Z,5.70
2018-09-02T08:54:06.547Z,7.30
2018-09-02T08:55:07.091Z,6.80
2018-09-02T08:56:06.492Z,5.00
2018-09-02T08:57:07.093Z,5.00
2018-09-02T08:58:27.374Z,5.60
2018-09-02T08:59:27.892Z,6.50
2018-09-02T09:00:28.374Z,5.40
2018-09-02T09:01:27.927Z,7.00
2018-09-02T09:02:28.209Z,5.60
2018-09-02T09:03:28.005Z,5.60
2018-09-02T09:04:27.467Z,9.40
2018-09-02T09:05:27.767Z,7.40
2018-09-02T09:06:29.520Z,7.70
2018-09-02T09:07:28.187Z,5.80
2018-09-02T09:08:27.930Z,7.10
2018-09-02T09:09:27.721Z,7.10
2018-09-02T09:10:28.837Z,4.90
2018-09-02T09:11:27.610Z,5.30
2018-09-02T09:12:28.037Z,5.70
2018-09-02T09:13:28.372Z,7.20
2018-09-02T09:14:27.817Z,4.30
2018-09-02T09:15:28.121Z,6.20
2018-09-02T09:16:27.624Z,8.20
2018-09-02T09:17:28.064Z,4.90
2018-09-02T09:18:27.367Z,6.10
2018-09-02T09:19:28.959Z,6.00
2018-09-02T09:20:28.378Z,7.40
2018-09-02T09:21:28.319Z,7.80
2018-09-02T09:22:27.669Z,4.80
2018-09-02T09:23:28.114Z,5.60
2018-09-02T09:24:28.158Z,7.20
2018-09-02T09:25:27.447Z,6.90
2018-09-02T09:26:28.611Z,6.50
2018-09-02T09:27:28.482Z,4.50
2018-09-02T09:28:27.979Z,5.80
2018-09-02T09:29:28.630Z,5.80
2018-09-02T09:30:28.027Z,5.80
2018-09-02T09:31:27.630Z,4.90
2018-09-02T09:32:28.105Z,5.10
2018-09-02T09:33:27.348Z,4.20
2018-09-02T09:34:28.612Z,3.90
2018-09-02T09:35:27.974Z,3.50
2018-09-02T09:36:27.178Z,3.10
2018-09-02T09:37:27.550Z,4.80
2018-09-02T09:38:28.042Z,4.90
2018-09-02T09:39:28.008Z,4.00
2018-09-02T09:40:27.588Z,6.80
2018-09-02T09:41:29.619Z,4.00
2018-09-02T09:42:28.542Z,5.70
2018-09-02T09:43:28.375Z,5.90
2018-09-02T09:44:28.477Z,4.50
2018-09-02T09:45:27.941Z,6.40
2018-09-02T09:46:27.336Z,3.90
2018-09-02T09:47:27.644Z,4.80
2018-09-02T09:48:27.984Z,4.90
2018-09-02T09:49:28.147Z,3.50
2018-09-02T09:50:29.726Z,5.30
2018-09-02T09:51:28.728Z,3.90
2018-09-02T09:52:28.337Z,3.60
2018-09-02T09:53:28.048Z,4.30
2018-09-02T09:54:27.681Z,5.00
2018-09-02T09:55:52.800Z,4.10
2018-09-02T09:56:51.305Z,4.20
2018-09-02T09:57:49.923Z,4.50
2018-09-02T09:58:49.422Z,8.20
2018-09-02T09:59:50.226Z,3.80
2018-09-02T10:00:50.681Z,3.50
2018-09-02T10:02:11.772Z,3.10
2018-09-02T10:03:34.242Z,4.70
2018-09-02T10:04:54.878Z,7.00
2018-09-02T10:06:17.954Z,4.50
2018-09-02T10:07:17.463Z,4.50
2018-09-02T10:08:38.388Z,6.10
2018-09-02T10:09:38.870Z,7.00
2018-09-02T10:10:38.586Z,4.90
2018-09-02T10:11:39.415Z,3.30
2018-09-02T10:12:39.575Z,3.20
2018-09-02T10:13:39.105Z,3.00
2018-09-02T10:14:38.650Z,2.90
2018-09-02T10:15:39.727Z,4.50
2018-09-02T10:16:39.652Z,4.50
2018-09-02T10:17:39.978Z,5.50
2018-09-02T10:19:00.508Z,3.10
2018-09-02T10:20:00.092Z,2.80
2018-09-02T10:21:00.662Z,4.70
2018-09-02T10:22:45.116Z,4.00
2018-09-02T10:23:44.787Z,4.40
2018-09-02T10:24:44.770Z,5.20
2018-09-02T10:25:44.331Z,4.70
2018-09-02T10:26:45.357Z,4.40
2018-09-02T10:27:44.428Z,5.30
2018-09-02T10:28:43.915Z,6.50
2018-09-02T10:29:44.854Z,3.60
2018-09-02T10:30:44.313Z,3.20
2018-09-02T10:31:44.948Z,3.50
2018-09-02T10:32:45.204Z,5.30
2018-09-02T10:34:05.958Z,2.90
2018-09-02T10:35:30.038Z,7.50
2018-09-02T10:36:51.559Z,7.80
2018-09-02T10:37:54.473Z,8.60
2018-09-02T10:38:52.780Z,7.20
2018-09-02T10:39:52.366Z,6.50
2018-09-02T10:40:52.585Z,9.10
2018-09-02T10:41:53.771Z,5.60
2018-09-02T10:42:53.500Z,6.90
2018-09-02T10:43:52.141Z,6.20
2018-09-02T10:44:52.219Z,3.60
2018-09-02T10:45:51.830Z,3.20
2018-09-02T10:47:27.479Z,4.30
2018-09-02T10:48:44.957Z,4.70
2018-09-02T10:50:30.460Z,3.80
2018-09-02T10:51:30.839Z,3.60
2018-09-02T10:52:29.357Z,5.80
2018-09-02T10:53:29.618Z,4.90
2018-09-02T10:54:31.160Z,4.20
2018-09-02T10:55:29.626Z,4.80
2018-09-02T10:56:29.967Z,3.40
2018-09-02T10:57:29.736Z,7.10
2018-09-02T10:58:31.388Z,3.20
2018-09-02T10:59:29.545Z,8.10
2018-09-02T11:00:30.203Z,3.00
2018-09-02T11:01:30.419Z,2.50
2018-09-02T11:02:30.395Z,2.80
2018-09-02T11:03:52.103Z,3.60
2018-09-02T11:05:14.087Z,4.10
2018-09-02T11:06:13.878Z,4.80
2018-09-02T11:07:13.683Z,4.40
2018-09-02T11:08:15.461Z,4.00
2018-09-02T11:09:13.053Z,4.30
2018-09-02T11:10:13.942Z,3.70
2018-09-02T11:11:14.302Z,3.30
2018-09-02T11:12:13.020Z,3.70
2018-09-02T11:13:34.823Z,3.60
2018-09-02T11:14:35.474Z,3.40
2018-09-02T11:15:56.462Z,4.00
2018-09-02T11:16:57.118Z,5.10
2018-09-02T11:17:56.910Z,5.20
2018-09-02T11:18:57.079Z,4.80
2018-09-02T11:19:57.179Z,4.60
2018-09-02T11:20:58.520Z,5.40
2018-09-02T11:21:57.200Z,5.60
2018-09-02T11:22:57.461Z,4.70
2018-09-02T11:23:58.589Z,3.30
2018-09-02T11:24:57.250Z,3.50
2018-09-02T11:25:56.840Z,3.10
2018-09-02T11:26:58.091Z,2.90
2018-09-02T11:28:18.998Z,2.60
2018-09-02T11:29:20.042Z,3.80
2018-09-02T11:30:41.481Z,3.50
2018-09-02T11:31:43.258Z,3.30
2018-09-02T11:32:42.734Z,2.50
2018-09-02T11:34:25.222Z,3.30
2018-09-02T11:35:26.204Z,4.40
2018-09-02T11:36:25.865Z,3.00
2018-09-02T11:37:25.841Z,4.80
2018-09-02T11:38:26.246Z,2.70
2018-09-02T11:39:27.211Z,2.80
2018-09-02T11:40:26.711Z,5.00
2018-09-02T11:41:48.511Z,3.80
2018-09-02T11:42:49.303Z,3.10
2018-09-02T11:44:31.388Z,7.50
2018-09-02T11:45:32.775Z,4.40
2018-09-02T11:46:31.247Z,5.80
2018-09-02T11:47:54.093Z,6.40
2018-09-02T11:48:54.796Z,4.40
2018-09-02T11:50:18.570Z,4.60
2018-09-02T11:51:42.525Z,3.10
2018-09-02T11:53:04.423Z,3.10
2018-09-02T11:54:05.058Z,6.60
2018-09-02T11:55:26.345Z,3.40
2018-09-02T11:56:53.142Z,4.90
2018-09-02T11:57:59.515Z,6.30
2018-09-02T11:59:11.160Z,3.70
2018-09-02T12:00:11.618Z,3.20
2018-09-02T12:01:12.118Z,3.20
2018-09-02T12:02:11.752Z,3.10
2018-09-02T12:03:11.464Z,3.10
2018-09-02T12:04:12.067Z,2.90
2018-09-02T12:05:44.440Z,3.40
2018-09-02T12:06:46.106Z,3.70
2018-09-02T12:07:45.117Z,5.60
2018-09-02T12:09:07.029Z,3.60
2018-09-02T12:10:12.211Z,3.40
2018-09-02T12:11:08.109Z,8.60
2018-09-02T12:12:28.934Z,3.20
2018-09-02T12:13:30.673Z,3.40
2018-09-02T12:14:29.679Z,3.50
2018-09-02T12:15:30.153Z,2.70
2018-09-02T12:16:31.628Z,3.60
2018-09-02T12:17:51.001Z,2.90
2018-09-02T12:19:14.506Z,3.10
2018-09-02T12:20:36.958Z,2.70
2018-09-02T12:21:35.735Z,3.70
2018-09-02T12:22:37.106Z,4.60
2018-09-02T12:23:37.216Z,3.10
2018-09-02T12:24:37.166Z,4.30
2018-09-02T12:25:36.908Z,2.80
2018-09-02T12:26:35.515Z,2.70
2018-09-02T12:27:37.702Z,3.10
2018-09-02T12:28:37.085Z,4.40
2018-09-02T12:29:36.473Z,4.90
2018-09-02T12:30:37.210Z,2.70
2018-09-02T12:31:36.865Z,3.70
2018-09-02T12:32:36.612Z,2.10
2018-09-02T12:33:37.648Z,4.40
2018-09-02T12:34:37.057Z,2.50
2018-09-02T12:35:35.679Z,3.60
2018-09-02T12:36:37.041Z,3.30
2018-09-02T12:37:35.473Z,4.70
2018-09-02T12:38:36.609Z,3.80
2018-09-02T12:39:36.068Z,2.60
2018-09-02T12:40:36.719Z,3.40
2018-09-02T12:41:36.549Z,2.80
2018-09-02T12:42:38.371Z,4.00
2018-09-02T12:43:37.726Z,2.80
2018-09-02T12:44:58.565Z,5.90
2018-09-02T12:46:19.780Z,3.20
2018-09-02T12:47:43.367Z,4.30
2018-09-02T12:48:43.717Z,4.00
2018-09-02T12:50:06.179Z,3.20
2018-09-02T12:51:05.810Z,3.30
2018-09-02T12:52:09.170Z,4.10
2018-09-02T12:53:05.951Z,4.40
2018-09-02T12:54:06.636Z,7.00
2018-09-02T12:55:06.876Z,3.60
2018-09-02T12:56:07.867Z,6.70
2018-09-02T12:57:06.437Z,2.40
2018-09-02T12:58:06.802Z,2.60
2018-09-02T12:59:06.540Z,2.70
2018-09-02T13:00:29.771Z,3.90
2018-09-02T13:01:29.106Z,5.00
2018-09-02T13:02:28.752Z,5.30
2018-09-02T13:03:28.512Z,3.60
2018-09-02T13:04:28.999Z,3.30
2018-09-02T13:05:28.887Z,2.70
2018-09-02T13:06:28.476Z,4.70
2018-09-02T13:07:29.146Z,2.90
2018-09-02T13:08:29.576Z,5.30
2018-09-02T13:09:29.257Z,2.50
2018-09-02T13:10:29.707Z,3.70
2018-09-02T13:11:50.370Z,3.90
2018-09-02T13:12:50.547Z,2.50
2018-09-02T13:13:51.244Z,3.20
2018-09-02T13:14:50.047Z,2.50
2018-09-02T13:15:51.037Z,3.90
2018-09-02T13:16:53.069Z,4.70
2018-09-02T13:17:50.799Z,4.70
2018-09-02T13:18:50.660Z,6.20
2018-09-02T13:20:11.968Z,6.60
2018-09-02T13:21:13.342Z,6.70
2018-09-02T13:22:11.959Z,4.40
2018-09-02T13:23:12.845Z,70.30
2018-09-02T13:24:12.964Z,8.70
2018-09-02T13:25:13.451Z,9.70
2018-09-02T13:26:11.908Z,4.40
2018-09-02T13:27:12.799Z,7.00
2018-09-02T13:28:12.649Z,58.20
2018-09-02T13:29:12.413Z,9.70
2018-09-02T13:30:56.336Z,5.20
2018-09-02T13:31:56.328Z,2.70
2018-09-02T13:33:00.375Z,3.10
2018-09-02T13:33:57.177Z,5.20
2018-09-02T13:34:55.914Z,7.40
2018-09-02T13:35:59.097Z,4.00
2018-09-02T13:36:56.410Z,5.70
2018-09-02T13:37:56.106Z,3.40
2018-09-02T13:38:56.454Z,5.50
2018-09-02T13:40:07.351Z,3.30
2018-09-02T13:40:56.004Z,2.90
2018-09-02T13:41:55.840Z,4.10
2018-09-02T13:42:56.652Z,4.80
2018-09-02T13:43:57.075Z,3.50
2018-09-02T13:44:55.808Z,11.00
2018-09-02T13:45:55.522Z,4.70
2018-09-02T13:47:00.865Z,3.70
2018-09-02T13:48:16.687Z,4.50
2018-09-02T13:49:17.396Z,4.30
2018-09-02T13:50:17.007Z,3.70
2018-09-02T13:51:19.609Z,3.40